createdAt,value
2022-10-18T00:00:59.905Z,14.49
2022-10-18T00:03:26.998Z,14.51
2022-10-18T00:05:54.159Z,14.50
2022-10-18T00:08:21.690Z,14.49
2022-10-18T00:10:50.056Z,14.50
2022-10-18T00:13:17.952Z,14.48
2022-10-18T00:15:55.085Z,14.46
2022-10-18T00:18:23.266Z,14.43
2022-10-18T00:21:00.238Z,14.42
2022-10-18T00:23:29.235Z,14.40
2022-10-18T00:26:16.410Z,14.38
2022-10-18T00:28:45.347Z,14.37
2022-10-18T00:31:16.757Z,14.35
2022-10-18T00:33:51.534Z,14.35
2022-10-18T00:36:20.111Z,14.31
2022-10-18T00:38:48.379Z,14.30
2022-10-18T00:41:20.160Z,14.32
2022-10-18T00:44:05.221Z,14.34
2022-10-18T00:46:39.860Z,14.33
2022-10-18T00:49:15.420Z,14.36
2022-10-18T00:51:57.841Z,14.38
2022-10-18T00:54:27.738Z,14.36
2022-10-18T00:56:54.868Z,14.35
2022-10-18T00:59:23.399Z,14.34
2022-10-18T01:01:50.621Z,14.32
2022-10-18T01:04:22.151Z,14.31
2022-10-18T01:07:24.683Z,14.34
2022-10-18T01:10:25.568Z,14.36
2022-10-18T01:13:01.208Z,14.38
2022-10-18T01:15:36.708Z,14.36
2022-10-18T01:18:15.444Z,14.35
2022-10-18T01:21:13.177Z,14.34
2022-10-18T01:24:26.359Z,14.32
2022-10-18T01:27:15.196Z,14.33
2022-10-18T01:30:34.271Z,14.33
2022-10-18T01:33:27.640Z,14.31
2022-10-18T01:36:16.835Z,14.32
2022-10-18T01:38:47.475Z,14.35
2022-10-18T01:41:18.745Z,14.35
2022-10-18T01:43:50.832Z,14.37
2022-10-18T01:46:23.559Z,14.38
2022-10-18T01:48:56.269Z,14.36
2022-10-18T01:51:27.136Z,14.35
2022-10-18T01:53:54.847Z,14.34
2022-10-18T01:57:01.465Z,14.35
2022-10-18T02:00:06.675Z,14.35
2022-10-18T02:03:13.036Z,14.36
2022-10-18T02:05:48.676Z,14.35
2022-10-18T02:08:47.327Z,14.35
2022-10-18T02:11:17.411Z,14.33
2022-10-18T02:13:53.031Z,14.33
2022-10-18T02:16:28.240Z,14.33
2022-10-18T02:19:05.292Z,14.33
2022-10-18T02:21:33.428Z,14.33
2022-10-18T02:24:04.119Z,14.34
2022-10-18T02:26:31.395Z,14.34
2022-10-18T02:28:58.665Z,14.32
2022-10-18T02:31:33.032Z,14.32
2022-10-18T02:34:18.219Z,14.26
2022-10-18T02:36:59.976Z,14.23
2022-10-18T02:39:43.230Z,14.24
2022-10-18T02:42:12.009Z,14.21
2022-10-18T02:44:39.804Z,14.20
2022-10-18T02:47:09.357Z,14.19
2022-10-18T02:49:36.391Z,14.20
2022-10-18T02:52:03.670Z,14.21
2022-10-18T02:54:31.745Z,14.23
2022-10-18T02:56:58.767Z,14.25
2022-10-18T02:59:25.873Z,14.24
2022-10-18T03:01:54.041Z,14.24
2022-10-18T03:04:21.168Z,14.23
2022-10-18T03:06:48.316Z,14.21
2022-10-18T03:09:15.336Z,14.20
2022-10-18T03:11:42.414Z,14.19
2022-10-18T03:14:09.448Z,14.18
2022-10-18T03:16:36.569Z,14.18
2022-10-18T03:19:03.708Z,14.17
2022-10-18T03:21:30.813Z,14.18
2022-10-18T03:23:59.694Z,14.18
2022-10-18T03:26:26.760Z,14.16
2022-10-18T03:28:53.855Z,14.14
2022-10-18T03:31:21.971Z,14.14
2022-10-18T03:33:48.974Z,14.12
2022-10-18T03:36:15.998Z,14.11
2022-10-18T03:38:43.380Z,14.13
2022-10-18T03:41:10.511Z,14.11
2022-10-18T03:43:37.683Z,14.10
2022-10-18T03:46:05.056Z,14.11
2022-10-18T03:48:32.371Z,14.11
2022-10-18T03:50:59.558Z,14.12
2022-10-18T03:53:26.607Z,14.13
2022-10-18T03:55:55.459Z,14.12
2022-10-18T03:58:24.234Z,14.11
2022-10-18T04:00:55.400Z,14.11
2022-10-18T04:03:23.390Z,14.12
2022-10-18T04:05:51.125Z,14.10
2022-10-18T04:08:18.873Z,14.09
2022-10-18T04:10:46.514Z,14.07
2022-10-18T04:13:13.619Z,14.07
2022-10-18T04:15:41.819Z,14.09
2022-10-18T04:18:08.844Z,14.09
2022-10-18T04:20:35.936Z,14.10
2022-10-18T04:23:03.057Z,14.10
2022-10-18T04:25:30.194Z,14.11
2022-10-18T04:27:57.227Z,14.10
2022-10-18T04:30:24.176Z,14.11
2022-10-18T04:32:51.257Z,14.11
2022-10-18T04:35:19.706Z,14.11
2022-10-18T04:37:47.726Z,14.11
2022-10-18T04:40:14.832Z,14.11
2022-10-18T04:42:41.863Z,14.14
2022-10-18T04:45:09.672Z,14.16
2022-10-18T04:47:36.897Z,14.19
2022-10-18T04:50:05.515Z,14.21
2022-10-18T04:52:32.623Z,14.23
2022-10-18T04:54:59.655Z,14.23
2022-10-18T04:57:26.776Z,14.25
2022-10-18T04:59:53.723Z,14.27
2022-10-18T05:02:20.683Z,14.28
2022-10-18T05:04:47.715Z,14.28
2022-10-18T05:07:14.868Z,14.30
2022-10-18T05:09:41.832Z,14.30
2022-10-18T05:12:09.108Z,14.30
2022-10-18T05:14:36.157Z,14.31
2022-10-18T05:17:03.243Z,14.30
2022-10-18T05:19:30.255Z,14.31
2022-10-18T05:21:57.274Z,14.33
2022-10-18T05:24:27.021Z,14.33
2022-10-18T05:26:55.027Z,14.30
2022-10-18T05:29:22.332Z,14.31
2022-10-18T05:31:50.504Z,14.28
2022-10-18T05:34:18.459Z,14.25
2022-10-18T05:36:45.663Z,14.22
2022-10-18T05:39:12.784Z,14.21
2022-10-18T05:41:39.814Z,14.18
2022-10-18T05:44:07.290Z,14.15
2022-10-18T05:46:34.402Z,14.13
2022-10-18T05:49:01.505Z,14.12
2022-10-18T05:51:28.477Z,14.11
2022-10-18T05:53:55.487Z,14.09
2022-10-18T05:56:22.630Z,14.07
2022-10-18T05:58:51.657Z,14.05
2022-10-18T06:01:20.091Z,14.04
2022-10-18T06:03:47.575Z,14.00
2022-10-18T06:06:16.976Z,13.97
2022-10-18T06:08:44.672Z,13.96
2022-10-18T06:11:16.460Z,13.96
2022-10-18T06:13:46.752Z,13.95
2022-10-18T06:16:18.547Z,13.97
2022-10-18T06:18:52.231Z,14.00
2022-10-18T06:21:20.892Z,14.00
2022-10-18T06:23:55.705Z,14.02
2022-10-18T06:26:23.130Z,14.01
2022-10-18T06:28:50.508Z,14.02
2022-10-18T06:31:18.424Z,14.04
2022-10-18T06:33:48.231Z,14.06
2022-10-18T06:36:22.270Z,14.07
2022-10-18T06:38:50.572Z,14.09
2022-10-18T06:41:19.565Z,14.10
2022-10-18T06:43:51.892Z,14.10
2022-10-18T06:46:19.915Z,14.09
2022-10-18T06:48:48.047Z,14.08
2022-10-18T06:51:15.394Z,14.07
2022-10-18T06:53:44.575Z,14.08
2022-10-18T06:56:26.093Z,14.08
2022-10-18T06:58:54.200Z,14.10
2022-10-18T07:01:21.990Z,14.11
2022-10-18T07:03:53.395Z,14.10
2022-10-18T07:06:22.348Z,14.11
2022-10-18T07:08:52.780Z,14.12
2022-10-18T07:11:25.240Z,14.11
2022-10-18T07:13:54.755Z,14.08
2022-10-18T07:16:22.121Z,14.07
2022-10-18T07:18:51.429Z,14.05
2022-10-18T07:21:23.103Z,14.07
2022-10-18T07:23:51.667Z,14.11
2022-10-18T07:26:25.209Z,14.20
2022-10-18T07:29:01.541Z,14.23
2022-10-18T07:31:30.104Z,14.27
2022-10-18T07:33:57.426Z,14.33
2022-10-18T07:36:25.602Z,14.36
2022-10-18T07:38:53.679Z,14.35
2022-10-18T07:41:21.680Z,14.28
2022-10-18T07:43:51.706Z,14.27
2022-10-18T07:46:21.558Z,14.28
2022-10-18T07:48:50.677Z,14.32
2022-10-18T07:51:20.627Z,14.40
2022-10-18T07:53:48.461Z,14.47
2022-10-18T07:56:21.162Z,14.48
2022-10-18T07:58:51.864Z,14.49
2022-10-18T08:01:21.406Z,14.50
2022-10-18T08:03:49.364Z,14.47
2022-10-18T08:06:19.127Z,14.42
2022-10-18T08:08:47.113Z,14.38
2022-10-18T08:11:21.381Z,14.37
2022-10-18T08:13:48.919Z,14.31
2022-10-18T08:16:20.473Z,14.25
2022-10-18T08:18:48.890Z,14.25
2022-10-18T08:21:17.751Z,14.25
2022-10-18T08:23:45.206Z,14.22
2022-10-18T08:26:20.062Z,14.29
2022-10-18T08:28:53.892Z,14.42
2022-10-18T08:31:27.592Z,14.57
2022-10-18T08:33:58.036Z,14.66
2022-10-18T08:36:26.064Z,14.88
2022-10-18T08:38:53.097Z,15.10
2022-10-18T08:42:30.174Z,15.35
2022-10-18T08:44:58.023Z,15.52
2022-10-18T08:47:41.948Z,15.64
2022-10-18T08:50:23.789Z,15.68
2022-10-18T08:52:53.633Z,15.71
2022-10-18T08:55:39.615Z,15.60
2022-10-18T08:58:33.613Z,15.50
2022-10-18T09:01:56.670Z,15.45
2022-10-18T09:05:04.357Z,15.50
2022-10-18T09:07:59.316Z,15.57
2022-10-18T09:14:03.434Z,15.62
2022-10-18T09:16:51.476Z,15.72
2022-10-18T09:19:45.114Z,15.81
2022-10-18T09:22:20.289Z,15.93
2022-10-18T09:25:14.319Z,16.03
2022-10-18T09:28:07.687Z,16.11
2022-10-18T09:31:17.446Z,16.20
2022-10-18T09:33:58.876Z,16.24
2022-10-18T09:36:35.556Z,16.28
2022-10-18T09:39:15.456Z,16.32
2022-10-18T09:41:59.146Z,16.37
2022-10-18T09:44:38.172Z,16.41
2022-10-18T09:47:33.735Z,16.49
2022-10-18T09:50:24.267Z,16.51
2022-10-18T09:53:12.869Z,16.54
2022-10-18T09:56:18.867Z,16.60
2022-10-18T09:58:49.712Z,16.70
2022-10-18T10:01:23.991Z,16.79
2022-10-18T10:03:52.428Z,16.83
2022-10-18T10:06:27.349Z,16.89
2022-10-18T10:09:18.272Z,16.94
2022-10-18T10:11:49.151Z,17.04
2022-10-18T10:14:26.210Z,17.06
2022-10-18T10:16:58.307Z,17.15
2022-10-18T10:19:32.149Z,17.17
2022-10-18T10:22:10.462Z,17.23
2022-10-18T10:24:51.188Z,17.32
2022-10-18T10:27:35.934Z,17.36
2022-10-18T10:30:22.539Z,17.44
2022-10-18T10:32:52.004Z,17.54
2022-10-18T10:38:29.535Z,17.60
2022-10-18T10:40:58.702Z,17.67
2022-10-18T10:43:40.027Z,17.77
2022-10-18T10:46:26.341Z,17.78
2022-10-18T10:49:21.679Z,17.82
2022-10-18T10:52:02.527Z,17.85
2022-10-18T10:54:39.841Z,17.95
2022-10-18T10:57:22.058Z,18.05
2022-10-18T10:59:53.758Z,18.15
2022-10-18T11:02:36.380Z,18.26
2022-10-18T11:05:29.462Z,18.36
2022-10-18T11:08:04.439Z,18.43
2022-10-18T11:10:50.074Z,18.47
2022-10-18T11:13:53.298Z,18.50
2022-10-18T11:16:56.220Z,18.49
2022-10-18T11:19:40.196Z,18.57
2022-10-18T11:22:18.479Z,18.61
2022-10-18T11:24:45.623Z,18.69
2022-10-18T11:27:29.314Z,18.75
2022-10-18T11:30:44.223Z,18.84
2022-10-18T11:34:03.707Z,18.91
2022-10-18T11:36:57.992Z,18.96
2022-10-18T11:39:50.071Z,19.02
2022-10-18T11:42:41.851Z,19.05
2022-10-18T11:46:00.277Z,19.14
2022-10-18T11:48:55.032Z,19.20
2022-10-18T11:52:03.131Z,19.24
2022-10-18T11:54:51.991Z,19.27
2022-10-18T11:57:55.239Z,19.27
2022-10-18T12:00:53.381Z,19.29
2022-10-18T12:03:35.352Z,19.32
2022-10-18T12:06:13.656Z,19.33
2022-10-18T12:08:52.903Z,19.36
2022-10-18T12:11:30.700Z,19.38
2022-10-18T12:14:07.933Z,19.45
2022-10-18T12:17:20.238Z,19.48
2022-10-18T12:19:33.056Z,19.48
2022-10-18T12:22:20.319Z,19.48
2022-10-18T12:24:47.419Z,19.50
2022-10-18T12:27:18.678Z,19.53
2022-10-18T12:30:03.738Z,19.59
2022-10-18T12:32:36.705Z,19.61
2022-10-18T12:35:13.476Z,19.60
2022-10-18T12:38:15.927Z,19.61
2022-10-18T12:40:48.404Z,19.58
2022-10-18T12:43:26.592Z,19.57
2022-10-18T12:46:00.410Z,19.61
2022-10-18T12:48:45.587Z,19.64
2022-10-18T12:51:21.831Z,19.60
2022-10-18T12:54:00.741Z,19.58
2022-10-18T12:56:27.710Z,19.55
2022-10-18T12:59:16.340Z,19.51
2022-10-18T13:01:53.457Z,19.48
2022-10-18T13:04:32.544Z,19.47
2022-10-18T13:07:08.347Z,19.46
2022-10-18T13:09:39.967Z,19.45
2022-10-18T13:12:09.651Z,19.45
2022-10-18T13:15:05.996Z,19.45
2022-10-18T13:17:54.885Z,19.39
2022-10-18T13:20:54.450Z,19.37
2022-10-18T13:23:49.776Z,19.39
2022-10-18T13:26:40.296Z,19.40
2022-10-18T13:29:47.424Z,19.40
2022-10-18T13:32:35.499Z,19.38
2022-10-18T13:35:03.559Z,19.36
2022-10-18T13:37:31.057Z,19.39
2022-10-18T13:40:25.444Z,19.40
2022-10-18T13:42:52.509Z,19.39
2022-10-18T13:45:52.772Z,19.39
2022-10-18T13:48:31.859Z,19.31
2022-10-18T13:51:27.036Z,19.28
2022-10-18T13:54:23.229Z,19.30
2022-10-18T13:57:34.152Z,19.36
2022-10-18T14:00:36.508Z,19.43
2022-10-18T14:03:55.480Z,19.40
2022-10-18T14:06:25.135Z,19.31
2022-10-18T14:09:32.858Z,19.28
2022-10-18T14:12:44.825Z,19.23
2022-10-18T14:15:51.422Z,19.15
2022-10-18T14:18:36.361Z,19.09
2022-10-18T14:21:17.838Z,19.12
2022-10-18T14:23:51.312Z,19.13
2022-10-18T14:26:21.501Z,19.13
2022-10-18T14:29:07.717Z,19.15
2022-10-18T14:31:35.596Z,19.15
2022-10-18T14:34:04.290Z,19.19
2022-10-18T14:36:46.941Z,19.22
2022-10-18T14:39:27.053Z,19.20
2022-10-18T14:41:59.496Z,19.17
2022-10-18T14:44:34.879Z,19.13
2022-10-18T14:47:21.111Z,19.06
2022-10-18T14:49:50.389Z,19.05
2022-10-18T14:52:29.411Z,19.07
2022-10-18T14:55:00.800Z,19.05
2022-10-18T14:57:37.560Z,19.08
2022-10-18T15:00:17.127Z,19.10
2022-10-18T15:02:45.249Z,19.07
2022-10-18T15:05:25.601Z,19.05
2022-10-18T15:07:55.197Z,18.98
2022-10-18T15:10:32.645Z,18.95
2022-10-18T15:13:12.820Z,18.87
2022-10-18T15:15:43.633Z,18.77
2022-10-18T15:18:24.152Z,18.71
2022-10-18T15:21:23.847Z,18.60
2022-10-18T15:23:52.971Z,18.52
2022-10-18T15:26:30.322Z,18.45
2022-10-18T15:29:02.849Z,18.38
2022-10-18T15:31:44.555Z,18.29
2022-10-18T15:34:19.810Z,18.20
2022-10-18T15:36:49.853Z,18.10
2022-10-18T15:39:24.419Z,17.99
2022-10-18T15:41:57.290Z,17.87
2022-10-18T15:44:48.142Z,17.78
2022-10-18T15:47:23.891Z,17.66
2022-10-18T15:49:55.550Z,17.53
2022-10-18T15:52:38.226Z,17.43
2022-10-18T15:55:31.224Z,17.30
2022-10-18T15:58:25.344Z,17.19
2022-10-18T16:00:59.372Z,17.04
2022-10-18T16:03:28.796Z,16.90
2022-10-18T16:06:06.116Z,16.80
2022-10-18T16:08:41.249Z,16.68
2022-10-18T16:11:16.662Z,16.58
2022-10-18T16:13:45.509Z,16.45
2022-10-18T16:16:26.068Z,16.33
2022-10-18T16:18:54.612Z,16.18
2022-10-18T16:21:31.922Z,16.06
2022-10-18T16:24:00.187Z,15.92
2022-10-18T16:26:29.828Z,15.78
2022-10-18T16:28:59.816Z,15.65
2022-10-18T16:31:33.545Z,15.51
2022-10-18T16:34:03.094Z,15.35
2022-10-18T16:36:33.700Z,15.17
2022-10-18T16:39:12.153Z,15.02
2022-10-18T16:41:39.215Z,14.85
2022-10-18T16:44:06.199Z,14.69
2022-10-18T16:46:35.232Z,14.54
2022-10-18T16:51:47.303Z,14.25
2022-10-18T16:54:14.426Z,14.12
2022-10-18T16:56:41.479Z,14.00
2022-10-18T16:59:21.886Z,13.89
2022-10-18T17:01:48.962Z,13.73
2022-10-18T17:04:16.556Z,13.63
2022-10-18T17:06:43.970Z,13.53
2022-10-18T17:09:15.045Z,13.36
2022-10-18T17:11:45.493Z,13.29
2022-10-18T17:14:12.556Z,13.17
2022-10-18T17:16:39.702Z,13.09
2022-10-18T17:19:11.719Z,13.01
2022-10-18T17:21:38.719Z,12.92
2022-10-18T17:24:06.246Z,12.83
2022-10-18T17:26:34.739Z,12.74
2022-10-18T17:29:07.171Z,12.67
2022-10-18T17:31:35.874Z,12.58
2022-10-18T17:34:04.643Z,12.51
2022-10-18T17:36:33.635Z,12.45
2022-10-18T17:39:01.584Z,12.36
2022-10-18T17:41:30.630Z,12.29
2022-10-18T17:43:58.260Z,12.21
2022-10-18T17:46:25.417Z,12.09
2022-10-18T17:48:53.679Z,12.01
2022-10-18T17:51:20.988Z,11.96
2022-10-18T17:53:48.497Z,11.92
2022-10-18T17:56:16.948Z,11.89
2022-10-18T17:58:43.899Z,11.81
2022-10-18T18:01:21.283Z,11.79
2022-10-18T18:03:48.654Z,11.75
2022-10-18T18:06:39.014Z,11.70
2022-10-18T18:09:13.548Z,11.68
2022-10-18T18:11:43.833Z,11.62
2022-10-18T18:14:12.041Z,11.59
2022-10-18T18:16:43.016Z,11.56
2022-10-18T18:19:11.359Z,11.50
2022-10-18T18:21:40.294Z,11.46
2022-10-18T18:24:10.053Z,11.42
2022-10-18T18:26:38.936Z,11.37
2022-10-18T18:29:06.473Z,11.31
2022-10-18T18:31:38.873Z,11.27
2022-10-18T18:34:10.319Z,11.18
2022-10-18T18:36:37.723Z,11.12
2022-10-18T18:39:05.691Z,11.05
2022-10-18T18:41:33.280Z,10.97
2022-10-18T18:44:04.352Z,10.90
2022-10-18T18:46:38.313Z,10.86
2022-10-18T18:49:08.112Z,10.80
2022-10-18T18:51:40.129Z,10.77
2022-10-18T18:54:10.364Z,10.71
2022-10-18T18:56:38.060Z,10.68
2022-10-18T18:59:05.874Z,10.64
2022-10-18T19:01:37.041Z,10.60
2022-10-18T19:04:07.558Z,10.56
2022-10-18T19:06:38.715Z,10.48
2022-10-18T19:09:18.960Z,10.44
2022-10-18T19:11:48.594Z,10.39
2022-10-18T19:14:15.783Z,10.34
2022-10-18T19:16:55.088Z,10.28
2022-10-18T19:19:25.230Z,10.21
2022-10-18T19:22:00.215Z,10.14
2022-10-18T19:24:32.452Z,10.05
2022-10-18T19:27:12.519Z,9.99
2022-10-18T19:29:40.961Z,9.93
2022-10-18T19:32:15.093Z,9.89
2022-10-18T19:34:46.156Z,9.85
2022-10-18T19:37:16.115Z,9.82
2022-10-18T19:39:43.301Z,9.76
2022-10-18T19:42:16.002Z,9.73
2022-10-18T19:44:47.943Z,9.71
2022-10-18T19:47:14.972Z,9.66
2022-10-18T19:49:43.041Z,9.63
2022-10-18T19:52:12.251Z,9.59
2022-10-18T19:54:39.618Z,9.56
2022-10-18T19:57:07.819Z,9.55
2022-10-18T19:59:36.030Z,9.52
2022-10-18T20:02:06.955Z,9.50
2022-10-18T20:04:35.068Z,9.46
2022-10-18T20:07:02.768Z,9.43
2022-10-18T20:09:30.053Z,9.39
2022-10-18T20:11:57.081Z,9.35
2022-10-18T20:14:24.117Z,9.31
2022-10-18T20:16:51.175Z,9.29
2022-10-18T20:19:18.242Z,9.25
2022-10-18T20:21:45.245Z,9.24
2022-10-18T20:24:12.364Z,9.23
2022-10-18T20:26:39.770Z,9.19
2022-10-18T20:29:07.848Z,9.17
2022-10-18T20:31:38.392Z,9.14
2022-10-18T20:34:11.078Z,9.12
2022-10-18T20:36:38.378Z,9.10
2022-10-18T20:39:07.733Z,9.07
2022-10-18T20:41:41.135Z,9.03
2022-10-18T20:44:14.537Z,9.02
2022-10-18T20:46:42.370Z,9.01
2022-10-18T20:49:14.743Z,8.99
2022-10-18T20:51:42.199Z,8.96
2022-10-18T20:54:10.454Z,8.94
2022-10-18T20:56:39.171Z,8.90
2022-10-18T20:59:14.741Z,8.84
2022-10-18T21:01:43.062Z,8.79
2022-10-18T21:04:11.294Z,8.81
2022-10-18T21:06:43.159Z,8.92
2022-10-18T21:09:16.345Z,9.03
2022-10-18T21:11:49.811Z,9.10
2022-10-18T21:14:21.232Z,9.13
2022-10-18T21:16:50.880Z,9.10
2022-10-18T21:19:25.329Z,9.10
2022-10-18T21:21:55.343Z,9.09
2022-10-18T21:24:25.989Z,9.12
2022-10-18T21:26:53.663Z,9.18
2022-10-18T21:29:24.735Z,9.23
2022-10-18T21:31:55.671Z,9.18
2022-10-18T21:34:22.803Z,9.12
2022-10-18T21:36:49.813Z,9.04
2022-10-18T21:39:21.343Z,8.93
2022-10-18T21:41:49.462Z,8.81
2022-10-18T21:44:18.210Z,8.74
2022-10-18T21:46:46.736Z,8.67
2022-10-18T21:49:15.584Z,8.60
2022-10-18T21:51:44.107Z,8.58
2022-10-18T21:54:14.506Z,8.52
2022-10-18T21:56:41.846Z,8.49
2022-10-18T21:59:14.035Z,8.45
2022-10-18T22:01:43.538Z,8.46
2022-10-18T22:04:23.845Z,8.51
2022-10-18T22:06:52.164Z,8.50
2022-10-18T22:09:21.058Z,8.47
2022-10-18T22:11:52.657Z,8.42
2022-10-18T22:14:20.853Z,8.34
2022-10-18T22:16:47.920Z,8.28
2022-10-18T22:19:15.100Z,8.20
2022-10-18T22:21:42.250Z,8.15
2022-10-18T22:24:10.423Z,8.09
2022-10-18T22:26:41.599Z,8.05
2022-10-18T22:29:15.166Z,8.01
2022-10-18T22:31:47.374Z,7.97
2022-10-18T22:34:22.285Z,7.93
2022-10-18T22:36:50.176Z,7.91
2022-10-18T22:39:17.954Z,7.89
2022-10-18T22:41:46.588Z,7.83
2022-10-18T22:44:14.759Z,7.79
2022-10-18T22:46:43.069Z,7.76
2022-10-18T22:49:11.638Z,7.74
2022-10-18T22:51:40.630Z,7.72
2022-10-18T22:54:07.941Z,7.66
2022-10-18T22:56:35.228Z,7.67
2022-10-18T22:59:02.224Z,7.64
2022-10-18T23:01:30.311Z,7.61
2022-10-18T23:04:00.002Z,7.59
2022-10-18T23:06:31.916Z,7.58
2022-10-18T23:09:02.179Z,7.53
2022-10-18T23:11:29.556Z,7.52
2022-10-18T23:13:57.114Z,7.50
2022-10-18T23:16:26.264Z,7.48
2022-10-18T23:18:56.815Z,7.45
2022-10-18T23:21:28.002Z,7.44
2022-10-18T23:23:56.748Z,7.40
2022-10-18T23:26:28.106Z,7.37
2022-10-18T23:28:56.271Z,7.33
2022-10-18T23:31:31.083Z,7.33
2022-10-18T23:34:04.943Z,7.31
2022-10-18T23:36:33.602Z,7.29
2022-10-18T23:39:00.984Z,7.38
2022-10-18T23:41:28.289Z,7.50
2022-10-18T23:43:55.424Z,7.58
2022-10-18T23:46:22.550Z,7.57
2022-10-18T23:48:50.297Z,7.51
2022-10-18T23:51:18.431Z,7.43
2022-10-18T23:53:45.674Z,7.38
2022-10-18T23:56:16.129Z,7.36
2022-10-18T23:58:45.135Z,7.35
